Time;durP1;ratioP1;P1;durP2;ratioP2;P2;SDS_P1;SDS_P2;PMS_P1;PMS_P2;Temp;Humidity;BMP_temperature;BMP_pressure;BME280_temperature;BME280_humidity;BME280_pressure;Samples;Min_cycle;Max_cycle;Signal;HPM_P1;HPM_P2
2022/01/12 00:00:55;;;;;;;12.40;4.53;;;;;;;;;;4766401;28;20049;-71
2022/01/12 00:03:21;;;;;;;;;;;;;;;;;;4781891;28;20027;-70
2022/01/12 00:05:48;;;;;;;13.02;3.63;;;;;;;;;;4780504;28;21081;-70
2022/01/12 00:08:14;;;;;;;13.02;3.72;;;;;;;;;;4783573;28;20028;-70
2022/01/12 00:10:41;;;;;;;11.68;3.58;;;;;;;;;;4777677;28;20060;-70
2022/01/12 00:13:08;;;;;;;12.23;3.42;;;;;;;;;;4783695;28;20092;-69
2022/01/12 00:15:38;;;;;;;11.38;3.45;;;;;;;;;;4784384;28;20669;-72
2022/01/12 00:18:08;;;;;;;11.60;3.17;;;;;;;;;;4781431;28;22742;-69
2022/01/12 00:20:35;;;;;;;11.15;3.10;;;;;;;;;;4785044;28;20035;-70
2022/01/12 00:23:01;;;;;;;10.68;2.53;;;;;;;;;;4760745;28;20045;-69
2022/01/12 00:25:31;;;;;;;11.20;3.15;;;;;;;;;;4783126;28;20042;-70
2022/01/12 00:33:28;;;;;;;15.15;3.08;;;;;;;;;;4784763;28;21265;-70
2022/01/12 00:35:55;;;;;;;10.23;2.72;;;;;;;;;;4782161;28;20031;-69
2022/01/12 00:38:23;;;;;;;10.65;2.95;;;;;;;;;;4777642;28;20030;-69
2022/01/12 00:40:54;;;;;;;12.38;3.25;;;;;;;;;;4782834;28;20035;-70
2022/01/12 00:43:21;;;;;;;10.20;2.88;;;;;;;;;;4779267;28;20102;-70
2022/01/12 00:45:48;;;;;;;11.32;2.90;;;;;;;;;;4784495;28;20113;-70
2022/01/12 00:48:15;;;;;;;10.18;2.53;;;;;;;;;;4782124;28;20040;-68
2022/01/12 00:50:41;;;;;;;12.10;2.90;;;;;;;;;;4763771;28;20037;-68
2022/01/12 00:53:07;;;;;;;11.00;2.75;;;;;;;;;;4785154;28;20117;-69
2022/01/12 00:55:34;;;;;;;9.40;2.55;;;;;;;;;;4783142;28;20119;-68
2022/01/12 00:58:00;;;;;;;9.10;2.00;;;;;;;;;;4767910;28;20039;-69
2022/01/12 01:00:27;;;;;;;10.73;2.35;;;;;;;;;;4763276;28;20177;-69
2022/01/12 01:02:53;;;;;;;9.73;2.45;;;;;;;;;;4784534;28;20048;-69
2022/01/12 01:05:24;;;;;;;11.23;2.30;;;;;;;;;;4778395;28;21198;-69
2022/01/12 01:07:51;;;;;;;9.05;2.35;;;;;;;;;;4766333;28;20031;-69
2022/01/12 01:10:45;;;;;;;9.88;1.98;;;;;;;;;;4785146;28;20030;-69
2022/01/12 01:13:07;;;;;;;8.48;2.50;;;;;;;;;;4789924;28;21607;-70
2022/01/12 01:26:36;;;;;;;9.73;2.50;;;;;;;;;;4788459;28;20840;-69
2022/01/12 01:29:03;;;;;;;10.25;2.40;;;;;;;;;;4770381;28;20396;-69
2022/01/12 01:31:32;;;;;;;10.63;2.58;;;;;;;;;;4788799;28;20157;-68
2022/01/12 01:34:08;;;;;;;10.27;2.30;;;;;;;;;;4764257;28;20031;-71
2022/01/12 01:36:35;;;;;;;8.68;2.30;;;;;;;;;;4786973;28;20035;-71
2022/01/12 01:39:02;;;;;;;11.80;2.70;;;;;;;;;;4768071;28;20128;-70
2022/01/12 01:41:28;;;;;;;10.57;2.65;;;;;;;;;;4785891;28;20141;-70
2022/01/12 01:54:53;;;;;;;11.63;2.40;;;;;;;;;;4782565;28;20062;-68
2022/01/12 01:57:20;;;;;;;10.13;2.25;;;;;;;;;;4780106;28;21303;-69
2022/01/12 01:59:46;;;;;;;10.30;2.65;;;;;;;;;;4783426;28;20038;-69
2022/01/12 02:02:12;;;;;;;;;;;;;;;;;;4761702;28;20040;-69
2022/01/12 02:04:39;;;;;;;9.55;2.33;;;;;;;;;;4783347;28;19918;-69
2022/01/12 02:07:05;;;;;;;9.20;2.30;;;;;;;;;;4784055;28;20055;-68
2022/01/12 02:09:34;;;;;;;9.98;2.10;;;;;;;;;;4782777;28;20477;-69
2022/01/12 02:12:01;;;;;;;9.10;2.38;;;;;;;;;;4764372;28;20030;-70
2022/01/12 02:14:29;;;;;;;9.38;2.40;;;;;;;;;;4779263;28;20026;-72
2022/01/12 02:17:04;;;;;;;10.48;2.35;;;;;;;;;;4767644;28;20035;-69
2022/01/12 02:35:15;;;;;;;8.80;2.33;;;;;;;;;;4722350;29;21054;-69
2022/01/12 02:36:44;;;;;;;11.68;2.72;;;;;;;;;;4726776;29;20130;-69
2022/01/12 02:41:55;;;;;;;9.68;2.33;;;;;;;;;;4719738;29;20106;-68
2022/01/12 02:55:19;;;;;;;8.93;2.40;;;;;;;;;;4723768;29;20150;-70
2022/01/12 02:57:45;;;;;;;10.50;2.63;;;;;;;;;;4733018;28;22408;-70
2022/01/12 03:00:15;;;;;;;11.07;2.78;;;;;;;;;;4762973;28;20196;-70
2022/01/12 03:02:43;;;;;;;9.75;2.53;;;;;;;;;;4762829;28;20769;-71
2022/01/12 03:07:39;;;;;;;10.43;2.75;;;;;;;;;;4760975;28;20771;-69
2022/01/12 03:10:06;;;;;;;12.43;2.95;;;;;;;;;;4760019;28;22370;-69
2022/01/12 03:12:32;;;;;;;9.00;2.63;;;;;;;;;;4755241;28;22180;-69
2022/01/12 03:14:59;;;;;;;9.15;2.35;;;;;;;;;;4763506;28;20737;-69
2022/01/12 03:17:25;;;;;;;14.00;3.08;;;;;;;;;;4764439;28;20118;-69
2022/01/12 03:19:51;;;;;;;11.27;2.80;;;;;;;;;;4765087;28;20587;-69
2022/01/12 03:22:17;;;;;;;9.68;2.22;;;;;;;;;;4760620;28;21120;-69
2022/01/12 03:24:43;;;;;;;10.38;2.50;;;;;;;;;;4760010;28;20031;-69
2022/01/12 03:27:13;;;;;;;11.45;2.50;;;;;;;;;;4762914;28;20126;-70
2022/01/12 03:29:44;;;;;;;9.70;2.38;;;;;;;;;;4763499;28;20074;-69
2022/01/12 03:32:12;;;;;;;11.45;2.38;;;;;;;;;;4762008;28;20039;-69
2022/01/12 03:34:43;;;;;;;11.30;2.60;;;;;;;;;;4760882;28;23067;-69
2022/01/12 03:37:28;;;;;;;9.50;2.28;;;;;;;;;;4764705;28;20931;-69
2022/01/12 03:39:55;;;;;;;8.43;2.35;;;;;;;;;;4762994;28;20715;-69
2022/01/12 03:42:21;;;;;;;10.02;2.10;;;;;;;;;;4761344;28;20043;-72
2022/01/12 03:44:47;;;;;;;11.65;2.90;;;;;;;;;;4761251;28;21467;-71
2022/01/12 03:47:15;;;;;;;13.05;2.60;;;;;;;;;;4761984;28;20764;-70
2022/01/12 03:49:41;;;;;;;8.02;2.00;;;;;;;;;;4757589;28;20043;-70
2022/01/12 03:52:07;;;;;;;10.52;2.60;;;;;;;;;;4759651;28;20023;-70
2022/01/12 03:54:34;;;;;;;10.50;2.25;;;;;;;;;;4759810;28;20066;-70
2022/01/12 03:57:00;;;;;;;9.32;2.33;;;;;;;;;;4762137;28;20034;-69
2022/01/12 03:59:26;;;;;;;11.30;2.22;;;;;;;;;;4761056;28;20097;-69
2022/01/12 04:01:53;;;;;;;11.50;2.40;;;;;;;;;;4755074;28;20711;-68
2022/01/12 04:04:29;;;;;;;10.00;2.60;;;;;;;;;;4762178;28;20718;-68
2022/01/12 04:09:39;;;;;;;10.70;1.98;;;;;;;;;;4762953;28;20793;-70
2022/01/12 04:12:06;;;;;;;10.20;2.35;;;;;;;;;;4763530;28;20146;-68
2022/01/12 04:14:32;;;;;;;13.25;2.58;;;;;;;;;;4757498;28;20111;-69
2022/01/12 04:16:58;;;;;;;11.65;2.20;;;;;;;;;;4761694;28;20702;-71
2022/01/12 04:19:26;;;;;;;8.95;1.88;;;;;;;;;;4763449;28;20050;-71
2022/01/12 04:21:53;;;;;;;11.02;2.08;;;;;;;;;;4765184;28;20042;-69
2022/01/12 04:24:19;;;;;;;8.68;2.10;;;;;;;;;;4767431;28;20034;-68
2022/01/12 04:26:45;;;;;;;9.13;2.33;;;;;;;;;;4763234;28;20042;-68
2022/01/12 04:29:13;;;;;;;7.85;2.00;;;;;;;;;;4766506;28;21257;-69
2022/01/12 04:31:40;;;;;;;8.82;2.40;;;;;;;;;;4765045;28;20046;-69
2022/01/12 04:34:06;;;;;;;9.65;2.30;;;;;;;;;;4767283;28;20122;-68
2022/01/12 04:36:34;;;;;;;7.80;1.92;;;;;;;;;;4766420;28;20031;-70
2022/01/12 04:39:00;;;;;;;9.43;2.55;;;;;;;;;;4759607;28;20065;-70
2022/01/12 04:41:26;;;;;;;11.15;2.50;;;;;;;;;;4762039;28;20705;-69
2022/01/12 04:43:53;;;;;;;9.32;2.35;;;;;;;;;;4765499;28;20031;-70
2022/01/12 04:47:06;;;;;;;9.40;2.30;;;;;;;;;;4764598;28;21115;-71
2022/01/12 04:49:47;;;;;;;13.57;2.47;;;;;;;;;;4760316;28;21080;-69
2022/01/12 04:52:10;;;;;;;9.73;2.22;;;;;;;;;;4766932;28;20049;-68
2022/01/12 04:54:37;;;;;;;9.25;2.15;;;;;;;;;;4771610;28;20107;-69
2022/01/12 04:57:03;;;;;;;11.85;2.78;;;;;;;;;;4768939;28;20038;-70
2022/01/12 04:59:31;;;;;;;14.20;3.78;;;;;;;;;;4785576;28;20645;-69
2022/01/12 05:02:11;;;;;;;10.93;2.90;;;;;;;;;;4786281;28;20034;-69
2022/01/12 05:07:27;;;;;;;10.48;2.22;;;;;;;;;;4784003;28;20038;-69
2022/01/12 05:15:21;;;;;;;10.65;2.42;;;;;;;;;;4785352;28;20041;-69
2022/01/12 05:17:48;;;;;;;14.25;2.75;;;;;;;;;;4784397;28;20084;-69
2022/01/12 05:20:14;;;;;;;13.35;2.80;;;;;;;;;;4766473;28;20611;-69
2022/01/12 05:22:41;;;;;;;10.88;2.22;;;;;;;;;;4779911;28;20038;-68
2022/01/12 05:25:07;;;;;;;11.52;2.75;;;;;;;;;;4784228;28;20904;-69
2022/01/12 05:27:33;;;;;;;10.90;2.28;;;;;;;;;;4783976;28;20125;-69
2022/01/12 05:29:59;;;;;;;12.82;2.53;;;;;;;;;;4785306;28;22024;-69
2022/01/12 05:32:26;;;;;;;12.68;3.08;;;;;;;;;;4783596;28;20035;-69
2022/01/12 05:34:58;;;;;;;11.63;2.58;;;;;;;;;;4778886;28;21335;-71
2022/01/12 05:37:24;;;;;;;12.32;2.83;;;;;;;;;;4761642;28;22991;-71
2022/01/12 05:39:51;;;;;;;13.18;2.75;;;;;;;;;;4767155;28;20038;-69
2022/01/12 05:42:17;;;;;;;9.50;2.35;;;;;;;;;;4766981;28;20663;-69
2022/01/12 05:44:43;;;;;;;12.70;2.70;;;;;;;;;;4765505;28;20042;-69
2022/01/12 05:47:19;;;;;;;10.82;2.25;;;;;;;;;;4778419;28;20060;-68
2022/01/12 05:49:45;;;;;;;10.30;2.23;;;;;;;;;;4766502;28;20754;-69
2022/01/12 05:52:12;;;;;;;10.73;2.33;;;;;;;;;;4784651;28;20038;-69
2022/01/12 05:54:38;;;;;;;;;;;;;;;;;;4785566;28;20043;-69
2022/01/12 05:57:04;;;;;;;10.30;2.45;;;;;;;;;;4784503;28;20756;-71
2022/01/12 05:59:30;;;;;;;11.18;2.53;;;;;;;;;;4782182;28;20027;-70
2022/01/12 06:01:57;;;;;;;13.00;2.78;;;;;;;;;;4766188;28;20045;-69
2022/01/12 06:04:23;;;;;;;9.85;2.47;;;;;;;;;;4781227;28;20042;-70
2022/01/12 06:06:50;;;;;;;9.93;2.45;;;;;;;;;;4783786;28;20304;-69
2022/01/12 06:09:26;;;;;;;10.50;2.90;;;;;;;;;;4784791;28;20030;-69
2022/01/12 06:11:56;;;;;;;9.20;2.47;;;;;;;;;;4780659;28;20029;-70
2022/01/12 06:14:22;;;;;;;10.13;2.83;;;;;;;;;;4780948;28;21826;-70
2022/01/12 06:16:50;;;;;;;10.05;2.42;;;;;;;;;;4784313;28;20275;-71
2022/01/12 06:19:18;;;;;;;11.10;2.63;;;;;;;;;;4765978;28;20738;-69
2022/01/12 06:21:45;;;;;;;11.73;2.63;;;;;;;;;;4785029;28;20760;-70
2022/01/12 06:24:11;;;;;;;;;;;;;;;;;;4779757;28;20039;-69
2022/01/12 06:26:42;;;;;;;12.05;2.65;;;;;;;;;;4783427;28;20687;-69
2022/01/12 06:31:41;;;;;;;11.38;2.58;;;;;;;;;;4782284;28;22018;-70
2022/01/12 06:34:08;;;;;;;10.75;2.47;;;;;;;;;;4783524;28;20076;-70
2022/01/12 06:36:35;;;;;;;9.65;2.38;;;;;;;;;;4760903;28;20035;-70
2022/01/12 06:39:02;;;;;;;9.90;2.40;;;;;;;;;;4784897;28;20077;-71
2022/01/12 06:41:28;;;;;;;10.98;2.65;;;;;;;;;;4784375;28;20042;-70
2022/01/12 06:43:54;;;;;;;11.07;2.60;;;;;;;;;;4784973;28;20027;-69
2022/01/12 06:46:25;;;;;;;13.32;2.78;;;;;;;;;;4765817;28;20046;-69
2022/01/12 06:48:52;;;;;;;12.80;2.67;;;;;;;;;;4780047;28;20304;-70
2022/01/12 06:51:21;;;;;;;11.18;2.50;;;;;;;;;;4782012;28;20570;-68
2022/01/12 06:53:47;;;;;;;9.77;2.60;;;;;;;;;;4784059;28;20085;-71
2022/01/12 06:56:20;;;;;;;14.40;3.90;;;;;;;;;;4784532;28;20481;-68
2022/01/12 06:58:47;;;;;;;12.10;3.30;;;;;;;;;;4768287;28;20035;-68
2022/01/12 07:01:17;;;;;;;14.32;4.07;;;;;;;;;;4778922;28;20054;-69
2022/01/12 07:03:44;;;;;;;15.40;4.10;;;;;;;;;;4784614;28;20037;-69
2022/01/12 07:06:10;;;;;;;14.80;4.25;;;;;;;;;;4786145;28;20081;-69
2022/01/12 07:08:40;;;;;;;11.93;3.72;;;;;;;;;;4782231;28;20034;-69
2022/01/12 07:11:09;;;;;;;14.07;4.80;;;;;;;;;;4784818;28;20061;-69
2022/01/12 07:13:36;;;;;;;14.00;3.70;;;;;;;;;;4778192;28;20026;-68
2022/01/12 07:16:05;;;;;;;13.55;3.80;;;;;;;;;;4762250;28;20037;-69
2022/01/12 07:18:32;;;;;;;11.85;3.50;;;;;;;;;;4780784;28;20400;-68
2022/01/12 07:20:59;;;;;;;11.52;3.40;;;;;;;;;;4781908;28;20034;-69
2022/01/12 07:23:26;;;;;;;10.38;3.05;;;;;;;;;;4782815;28;20034;-68
2022/01/12 07:25:52;;;;;;;11.95;3.40;;;;;;;;;;4777146;28;20030;-69
2022/01/12 07:28:18;;;;;;;12.75;3.30;;;;;;;;;;4779581;28;20170;-69
2022/01/12 07:30:45;;;;;;;12.43;3.13;;;;;;;;;;4784710;28;21949;-69
2022/01/12 07:33:11;;;;;;;10.48;2.92;;;;;;;;;;4782416;28;20039;-71
2022/01/12 07:35:38;;;;;;;10.40;2.88;;;;;;;;;;4782615;28;20033;-70
2022/01/12 07:38:04;;;;;;;9.55;2.67;;;;;;;;;;4760564;28;20177;-69
2022/01/12 07:40:30;;;;;;;9.85;2.53;;;;;;;;;;4780315;28;21399;-69
2022/01/12 07:42:57;;;;;;;11.80;3.10;;;;;;;;;;4781432;28;20355;-69
2022/01/12 07:45:23;;;;;;;8.23;2.78;;;;;;;;;;4781490;28;20052;-69
2022/01/12 07:47:50;;;;;;;10.68;3.60;;;;;;;;;;4779130;28;20645;-69
2022/01/12 07:50:16;;;;;;;10.52;2.67;;;;;;;;;;4778131;28;20057;-69
2022/01/12 07:52:42;;;;;;;12.00;3.47;;;;;;;;;;4782923;28;20157;-69
2022/01/12 07:55:08;;;;;;;10.55;3.45;;;;;;;;;;4782537;28;22846;-68
2022/01/12 07:57:35;;;;;;;11.85;3.53;;;;;;;;;;4787642;28;22306;-69
2022/01/12 08:00:02;;;;;;;;;;;;;;;;;;4784781;28;20027;-69
2022/01/12 08:02:28;;;;;;;11.23;3.72;;;;;;;;;;4780643;28;20028;-69
2022/01/12 08:04:54;;;;;;;13.38;3.60;;;;;;;;;;4785755;28;20742;-69
2022/01/12 08:07:21;;;;;;;12.93;3.63;;;;;;;;;;4784839;28;20736;-68
2022/01/12 08:09:47;;;;;;;11.10;3.17;;;;;;;;;;4785281;28;20062;-71
2022/01/12 08:12:13;;;;;;;10.13;2.90;;;;;;;;;;4779799;28;20058;-70
2022/01/12 08:14:39;;;;;;;12.55;3.10;;;;;;;;;;4768291;28;20039;-69
2022/01/12 08:17:06;;;;;;;11.13;3.10;;;;;;;;;;4784801;28;20109;-69
2022/01/12 08:19:36;;;;;;;11.32;2.83;;;;;;;;;;4780470;28;20244;-69
2022/01/12 08:22:03;;;;;;;10.20;2.35;;;;;;;;;;4768056;28;20419;-69
2022/01/12 08:24:29;;;;;;;12.52;2.97;;;;;;;;;;4782250;28;21143;-71
2022/01/12 08:26:55;;;;;;;9.90;2.70;;;;;;;;;;4785793;28;20069;-69
2022/01/12 08:29:22;;;;;;;12.73;3.10;;;;;;;;;;4786013;28;21153;-69
2022/01/12 08:31:49;;;;;;;8.98;2.58;;;;;;;;;;4768574;28;20026;-69
2022/01/12 08:34:15;;;;;;;9.77;3.10;;;;;;;;;;4786068;28;20038;-68
2022/01/12 08:36:42;;;;;;;12.20;3.97;;;;;;;;;;4782313;28;20109;-69
2022/01/12 08:39:09;;;;;;;10.10;3.35;;;;;;;;;;4768322;28;21544;-68
2022/01/12 08:41:36;;;;;;;12.70;4.32;;;;;;;;;;4785648;28;20041;-68
2022/01/12 08:44:03;;;;;;;11.85;3.97;;;;;;;;;;4785576;28;20038;-70
2022/01/12 08:46:30;;;;;;;11.95;4.97;;;;;;;;;;4765836;28;20042;-69
2022/01/12 08:48:56;;;;;;;13.25;5.82;;;;;;;;;;4780208;28;20038;-69
2022/01/12 08:51:23;;;;;;;15.27;7.78;;;;;;;;;;4787753;28;20119;-70
2022/01/12 08:53:49;;;;;;;14.93;6.70;;;;;;;;;;4787157;28;20272;-70
2022/01/12 08:56:15;;;;;;;14.52;6.00;;;;;;;;;;4786436;28;20054;-70
2022/01/12 08:58:42;;;;;;;13.98;4.90;;;;;;;;;;4786404;28;20077;-69
2022/01/12 09:01:10;;;;;;;11.23;3.92;;;;;;;;;;4783512;28;20321;-69
2022/01/12 09:03:37;;;;;;;10.20;3.83;;;;;;;;;;4772029;28;20178;-71
2022/01/12 09:06:05;;;;;;;13.40;4.85;;;;;;;;;;4768523;28;21093;-69
2022/01/12 09:08:31;;;;;;;14.35;6.55;;;;;;;;;;4765384;28;20105;-69
2022/01/12 09:10:57;;;;;;;15.75;6.30;;;;;;;;;;4783007;28;20035;-70
2022/01/12 09:13:23;;;;;;;13.43;5.22;;;;;;;;;;4780577;28;20053;-69
2022/01/12 09:15:49;;;;;;;13.38;4.45;;;;;;;;;;4784410;28;20023;-70
2022/01/12 09:18:18;;;;;;;12.50;4.38;;;;;;;;;;4785274;28;20632;-69
2022/01/12 09:20:44;;;;;;;12.38;4.15;;;;;;;;;;4789488;28;20092;-70
2022/01/12 09:23:10;;;;;;;;;;;;;;;;;;4762856;28;20034;-70
2022/01/12 09:25:39;;;;;;;10.23;3.53;;;;;;;;;;4783040;28;20028;-70
2022/01/12 09:28:08;;;;;;;10.30;2.92;;;;;;;;;;4783806;28;20038;-70
2022/01/12 09:30:34;;;;;;;11.82;3.85;;;;;;;;;;4765695;28;20746;-69
2022/01/12 09:33:00;;;;;;;10.15;3.13;;;;;;;;;;4784770;28;20027;-70
2022/01/12 09:35:27;;;;;;;10.40;2.60;;;;;;;;;;4761110;28;20041;-70
2022/01/12 09:37:54;;;;;;;10.07;3.38;;;;;;;;;;4767153;28;20169;-70
2022/01/12 09:40:20;;;;;;;;;;;;;;;;;;4783221;28;20039;-70
2022/01/12 09:42:47;;;;;;;10.18;3.25;;;;;;;;;;4784412;28;19945;-69
2022/01/12 09:45:16;;;;;;;12.82;4.25;;;;;;;;;;4765188;28;20042;-69
2022/01/12 09:47:43;;;;;;;11.20;3.70;;;;;;;;;;4778597;28;20046;-69
2022/01/12 09:50:10;;;;;;;12.50;3.78;;;;;;;;;;4767135;28;20034;-69
2022/01/12 09:52:36;;;;;;;16.45;4.50;;;;;;;;;;4780931;28;20120;-69
2022/01/12 09:55:02;;;;;;;12.98;4.85;;;;;;;;;;4784936;28;20093;-69
2022/01/12 09:57:29;;;;;;;13.80;5.50;;;;;;;;;;4783853;28;20031;-69
2022/01/12 09:59:55;;;;;;;15.48;4.70;;;;;;;;;;4779579;28;20049;-69
2022/01/12 10:02:21;;;;;;;;;;;;;;;;;;4783362;28;20085;-69
2022/01/12 10:04:48;;;;;;;13.35;4.13;;;;;;;;;;4765873;28;19956;-69
2022/01/12 10:07:14;;;;;;;12.30;3.65;;;;;;;;;;4764468;28;20841;-70
2022/01/12 10:09:45;;;;;;;13.52;3.90;;;;;;;;;;4782391;28;20735;-69
2022/01/12 10:12:13;;;;;;;11.65;3.78;;;;;;;;;;4779027;28;21467;-69
2022/01/12 10:14:45;;;;;;;10.50;3.13;;;;;;;;;;4765587;28;20049;-69
2022/01/12 10:17:12;;;;;;;14.38;3.40;;;;;;;;;;4781406;28;20030;-69
2022/01/12 10:19:39;;;;;;;10.75;3.60;;;;;;;;;;4767305;28;20047;-70
2022/01/12 10:22:06;;;;;;;11.30;3.20;;;;;;;;;;4767559;28;20060;-70
2022/01/12 10:24:36;;;;;;;10.82;3.10;;;;;;;;;;4780183;28;20353;-69
2022/01/12 10:27:10;;;;;;;10.10;3.35;;;;;;;;;;4783514;28;20034;-69
2022/01/12 10:29:36;;;;;;;10.63;3.03;;;;;;;;;;4780940;28;20185;-69
2022/01/12 10:32:04;;;;;;;12.02;3.53;;;;;;;;;;4782860;28;20058;-69
2022/01/12 10:34:36;;;;;;;10.57;3.33;;;;;;;;;;4783025;28;20370;-69
2022/01/12 10:37:05;;;;;;;9.60;3.40;;;;;;;;;;4780224;28;20165;-69
2022/01/12 10:39:31;;;;;;;12.77;3.60;;;;;;;;;;4783627;28;20065;-68
2022/01/12 10:41:57;;;;;;;;;;;;;;;;;;4784293;28;20034;-71
2022/01/12 10:44:25;;;;;;;12.40;3.22;;;;;;;;;;4766915;28;19936;-71
2022/01/12 10:47:12;;;;;;;10.63;3.10;;;;;;;;;;4785034;28;20495;-69
2022/01/12 10:49:40;;;;;;;10.38;3.03;;;;;;;;;;4761659;28;20057;-68
2022/01/12 10:52:11;;;;;;;10.95;2.65;;;;;;;;;;4762465;28;20371;-70
2022/01/12 10:54:44;;;;;;;10.27;2.55;;;;;;;;;;4782890;28;20415;-69
2022/01/12 10:57:18;;;;;;;11.27;2.90;;;;;;;;;;4765930;28;20030;-69
2022/01/12 10:59:47;;;;;;;9.75;2.60;;;;;;;;;;4785865;28;20034;-69
2022/01/12 11:02:14;;;;;;;9.20;2.80;;;;;;;;;;4786636;28;20141;-68
2022/01/12 11:04:41;;;;;;;10.98;2.65;;;;;;;;;;4780208;28;20034;-70
2022/01/12 11:07:07;;;;;;;10.30;2.80;;;;;;;;;;4762141;28;20078;-70
2022/01/12 11:09:33;;;;;;;10.02;2.65;;;;;;;;;;4783386;28;20119;-70
2022/01/12 11:12:00;;;;;;;11.38;2.80;;;;;;;;;;4767408;28;21261;-71
2022/01/12 11:14:26;;;;;;;10.52;2.60;;;;;;;;;;4765984;28;20623;-69
2022/01/12 11:16:52;;;;;;;12.75;2.65;;;;;;;;;;4779622;28;20033;-71
2022/01/12 11:19:18;;;;;;;9.15;2.67;;;;;;;;;;4765947;28;20840;-69
2022/01/12 11:21:49;;;;;;;9.40;2.60;;;;;;;;;;4781821;28;20027;-70
2022/01/12 11:24:18;;;;;;;9.68;2.55;;;;;;;;;;4782724;28;20037;-69
2022/01/12 11:26:55;;;;;;;11.18;2.60;;;;;;;;;;4784176;28;20042;-69
2022/01/12 11:29:28;;;;;;;10.25;2.30;;;;;;;;;;4760677;28;20142;-70
2022/01/12 11:32:04;;;;;;;9.02;2.60;;;;;;;;;;4766057;28;20097;-70
2022/01/12 11:34:30;;;;;;;;;;;;;;;;;;4782100;28;20108;-70
2022/01/12 11:36:56;;;;;;;9.00;2.40;;;;;;;;;;4764018;28;19918;-71
2022/01/12 11:39:23;;;;;;;9.38;2.33;;;;;;;;;;4780977;28;20684;-71
2022/01/12 11:41:49;;;;;;;8.80;2.50;;;;;;;;;;4779223;28;20042;-71
2022/01/12 11:44:17;;;;;;;10.02;2.20;;;;;;;;;;4761440;28;20034;-70
2022/01/12 11:46:43;;;;;;;8.48;2.22;;;;;;;;;;4783890;28;21815;-70
2022/01/12 11:49:09;;;;;;;9.57;2.40;;;;;;;;;;4762890;28;20030;-71
2022/01/12 11:51:43;;;;;;;9.20;2.30;;;;;;;;;;4783201;28;20041;-72
2022/01/12 11:54:10;;;;;;;10.32;2.38;;;;;;;;;;4759243;28;20057;-72
2022/01/12 11:56:36;;;;;;;9.15;2.20;;;;;;;;;;4782854;28;20026;-70
2022/01/12 11:59:08;;;;;;;8.63;2.15;;;;;;;;;;4783139;28;20720;-70
2022/01/12 12:01:37;;;;;;;8.50;2.47;;;;;;;;;;4783746;28;20026;-71
2022/01/12 12:04:04;;;;;;;9.27;2.28;;;;;;;;;;4780209;28;20157;-71
2022/01/12 12:06:31;;;;;;;11.00;2.78;;;;;;;;;;4762096;28;20046;-71
2022/01/12 12:08:59;;;;;;;8.38;2.28;;;;;;;;;;4782885;28;20065;-71
2022/01/12 12:11:27;;;;;;;11.27;3.20;;;;;;;;;;4780535;28;20128;-69
2022/01/12 12:13:54;;;;;;;8.82;2.40;;;;;;;;;;4781633;28;20082;-70
2022/01/12 12:16:20;;;;;;;9.88;2.70;;;;;;;;;;4780728;28;20026;-69
2022/01/12 12:18:47;;;;;;;10.25;2.90;;;;;;;;;;4777669;28;22746;-69
2022/01/12 12:21:13;;;;;;;11.68;3.00;;;;;;;;;;4780188;28;20113;-70
2022/01/12 12:23:39;;;;;;;9.23;2.97;;;;;;;;;;4783057;28;20031;-70
2022/01/12 12:26:10;;;;;;;11.80;2.88;;;;;;;;;;4783528;28;20041;-70
2022/01/12 12:28:37;;;;;;;9.48;3.35;;;;;;;;;;4782514;28;20038;-71
2022/01/12 12:31:03;;;;;;;10.10;3.17;;;;;;;;;;4761130;28;20165;-71
2022/01/12 12:33:29;;;;;;;10.85;2.70;;;;;;;;;;4765852;28;20078;-71
2022/01/12 12:35:55;;;;;;;9.73;3.03;;;;;;;;;;4768406;28;20058;-71
2022/01/12 12:38:21;;;;;;;9.85;3.03;;;;;;;;;;4764191;28;20125;-71
2022/01/12 12:40:49;;;;;;;9.45;2.33;;;;;;;;;;4786563;28;20047;-71
2022/01/12 12:43:22;;;;;;;8.52;2.20;;;;;;;;;;4765739;28;20041;-71
2022/01/12 12:45:52;;;;;;;9.98;2.35;;;;;;;;;;4783501;28;20062;-71
2022/01/12 12:48:19;;;;;;;7.68;2.13;;;;;;;;;;4783919;28;20048;-71
2022/01/12 12:50:45;;;;;;;8.57;2.45;;;;;;;;;;4767158;28;20034;-71
2022/01/12 12:53:12;;;;;;;10.35;2.40;;;;;;;;;;4783366;28;20090;-70
2022/01/12 12:55:43;;;;;;;8.23;2.00;;;;;;;;;;4761614;28;20058;-70
2022/01/12 12:58:09;;;;;;;8.95;2.50;;;;;;;;;;4763578;28;20093;-70
2022/01/12 13:00:36;;;;;;;8.95;2.35;;;;;;;;;;4765430;28;20049;-70
2022/01/12 13:03:03;;;;;;;11.82;3.80;;;;;;;;;;4767732;28;20465;-70
2022/01/12 13:05:31;;;;;;;10.48;3.72;;;;;;;;;;4767578;28;20030;-69
2022/01/12 13:07:57;;;;;;;11.32;3.05;;;;;;;;;;4761417;28;22694;-71
2022/01/12 13:10:25;;;;;;;8.35;2.30;;;;;;;;;;4767359;28;20086;-69
2022/01/12 13:12:53;;;;;;;10.25;3.50;;;;;;;;;;4765031;28;20031;-69
2022/01/12 13:15:21;;;;;;;11.80;4.97;;;;;;;;;;4766035;28;20334;-71
2022/01/12 13:17:47;;;;;;;22.42;11.35;;;;;;;;;;4764935;28;20414;-70
2022/01/12 13:22:51;;;;;;;25.77;12.80;;;;;;;;;;4774270;28;20047;-69
2022/01/12 13:25:18;;;;;;;19.02;8.82;;;;;;;;;;4767587;28;20039;-71
2022/01/12 13:27:48;;;;;;;15.98;8.95;;;;;;;;;;4764330;28;20126;-70
2022/01/12 13:30:25;;;;;;;15.55;7.35;;;;;;;;;;4765104;28;21681;-71
2022/01/12 13:32:52;;;;;;;12.35;6.00;;;;;;;;;;4760915;28;20034;-71
2022/01/12 13:35:25;;;;;;;21.27;11.50;;;;;;;;;;4765761;28;20126;-70
2022/01/12 13:37:56;;;;;;;15.10;6.70;;;;;;;;;;4766268;28;20602;-70
2022/01/12 13:40:22;;;;;;;12.93;5.60;;;;;;;;;;4765255;28;20058;-70
2022/01/12 13:43:00;;;;;;;9.77;3.70;;;;;;;;;;4762798;28;20034;-71
2022/01/12 13:45:38;;;;;;;10.20;3.30;;;;;;;;;;4758341;28;20039;-69
2022/01/12 13:48:12;;;;;;;10.18;3.45;;;;;;;;;;4760184;28;20041;-71
2022/01/12 13:50:39;;;;;;;10.20;3.67;;;;;;;;;;4764550;28;20046;-71
2022/01/12 13:53:06;;;;;;;10.98;4.65;;;;;;;;;;4765104;28;20502;-69
2022/01/12 13:55:33;;;;;;;10.43;3.90;;;;;;;;;;4783807;28;20047;-70
2022/01/12 13:58:04;;;;;;;11.05;3.83;;;;;;;;;;4769793;28;20104;-69
2022/01/12 14:00:31;;;;;;;16.83;5.40;;;;;;;;;;4783193;28;20149;-70
2022/01/12 14:02:58;;;;;;;14.07;5.57;;;;;;;;;;4771233;28;20038;-70
2022/01/12 14:05:38;;;;;;;11.73;4.70;;;;;;;;;;4766019;28;20236;-70
2022/01/12 14:08:11;;;;;;;11.07;3.90;;;;;;;;;;4766106;28;20066;-69
2022/01/12 14:10:37;;;;;;;12.45;4.30;;;;;;;;;;4764960;28;20033;-72
2022/01/12 14:13:04;;;;;;;10.27;3.20;;;;;;;;;;4781620;28;20117;-71
2022/01/12 14:15:32;;;;;;;12.05;3.83;;;;;;;;;;4766232;28;20655;-70
2022/01/12 14:17:59;;;;;;;11.55;3.63;;;;;;;;;;4783129;28;20530;-71
2022/01/12 14:20:36;;;;;;;10.30;3.83;;;;;;;;;;4762218;28;20039;-71
2022/01/12 14:23:05;;;;;;;11.00;4.07;;;;;;;;;;4783897;28;20034;-71
2022/01/12 14:25:34;;;;;;;11.52;4.38;;;;;;;;;;4781737;28;20865;-71
2022/01/12 14:28:00;;;;;;;13.07;4.60;;;;;;;;;;4779929;28;20042;-71
2022/01/12 14:30:27;;;;;;;11.77;4.25;;;;;;;;;;4784727;28;20092;-71
2022/01/12 14:32:53;;;;;;;11.73;3.80;;;;;;;;;;4782050;28;20627;-71
2022/01/12 14:35:21;;;;;;;9.40;3.45;;;;;;;;;;4783522;28;20100;-70
2022/01/12 14:37:48;;;;;;;10.13;3.63;;;;;;;;;;4778930;28;20716;-70
2022/01/12 14:40:15;;;;;;;11.10;3.60;;;;;;;;;;4782065;28;21448;-70
2022/01/12 14:42:41;;;;;;;8.73;3.20;;;;;;;;;;4783112;28;20157;-70
2022/01/12 14:45:08;;;;;;;12.25;3.33;;;;;;;;;;4782856;28;21005;-70
2022/01/12 14:47:34;;;;;;;9.48;2.88;;;;;;;;;;4782929;28;20043;-70
2022/01/12 14:50:02;;;;;;;12.07;3.70;;;;;;;;;;4778631;28;20167;-70
2022/01/12 14:52:28;;;;;;;10.50;3.60;;;;;;;;;;4767600;28;20025;-70
2022/01/12 14:54:54;;;;;;;10.48;3.85;;;;;;;;;;4782460;28;20160;-70
2022/01/12 14:57:20;;;;;;;11.02;3.97;;;;;;;;;;4764103;28;20046;-70
2022/01/12 14:59:46;;;;;;;10.75;3.83;;;;;;;;;;4764174;28;20042;-69
2022/01/12 15:02:13;;;;;;;11.18;3.50;;;;;;;;;;4777695;28;20030;-71
2022/01/12 15:04:39;;;;;;;9.35;3.00;;;;;;;;;;4782196;28;20031;-69
2022/01/12 15:07:05;;;;;;;10.77;3.17;;;;;;;;;;4781422;28;20273;-69
2022/01/12 15:09:33;;;;;;;9.57;2.63;;;;;;;;;;4765393;28;20030;-69
2022/01/12 15:11:59;;;;;;;10.60;2.72;;;;;;;;;;4782233;28;20038;-69
2022/01/12 15:14:42;;;;;;;10.18;2.80;;;;;;;;;;4777433;28;21846;-70
2022/01/12 15:17:09;;;;;;;8.70;2.53;;;;;;;;;;4780896;28;20046;-71
2022/01/12 15:19:35;;;;;;;8.20;2.28;;;;;;;;;;4765724;28;21304;-70
2022/01/12 15:22:01;;;;;;;9.10;2.63;;;;;;;;;;4761713;28;20045;-70
2022/01/12 15:24:29;;;;;;;8.32;2.50;;;;;;;;;;4784533;28;20510;-70
2022/01/12 15:26:55;;;;;;;8.40;2.65;;;;;;;;;;4759147;28;20047;-69
2022/01/12 15:29:21;;;;;;;9.98;3.17;;;;;;;;;;4780603;28;20102;-69
2022/01/12 15:31:48;;;;;;;9.48;3.40;;;;;;;;;;4782274;28;21317;-68
2022/01/12 15:34:14;;;;;;;10.70;3.10;;;;;;;;;;4781712;28;20030;-69
2022/01/12 15:36:40;;;;;;;9.52;3.17;;;;;;;;;;4781842;28;20034;-69
2022/01/12 15:39:06;;;;;;;7.95;2.80;;;;;;;;;;4777241;28;20189;-69
2022/01/12 15:41:33;;;;;;;9.23;2.55;;;;;;;;;;4763982;28;20038;-69
2022/01/12 15:43:59;;;;;;;7.10;2.22;;;;;;;;;;4781320;28;20163;-69
2022/01/12 15:46:25;;;;;;;9.10;2.50;;;;;;;;;;4765670;28;20034;-69
2022/01/12 15:48:52;;;;;;;8.73;2.33;;;;;;;;;;4763987;28;20128;-70
2022/01/12 15:51:18;;;;;;;8.25;2.30;;;;;;;;;;4778550;28;20054;-70
2022/01/12 15:53:44;;;;;;;8.63;2.63;;;;;;;;;;4782850;28;20235;-70